sensor_id;sensor_type;location;lat;lon;timestamp;P1;durP1;ratioP1;P2;durP2;ratioP2
72586;SDS011;60621;49.576;11.024;2022-11-14T00:01:04;17.08;;;9.05;;
72586;SDS011;60621;49.576;11.024;2022-11-14T00:02:09;17.13;;;8.40;;
72586;SDS011;60621;49.576;11.024;2022-11-14T00:03:11;17.77;;;8.82;;
72586;SDS011;60621;49.576;11.024;2022-11-14T00:04:13;16.20;;;9.30;;
72586;SDS011;60621;49.576;11.024;2022-11-14T00:05:15;18.52;;;9.32;;
72586;SDS011;60621;49.576;11.024;2022-11-14T00:06:16;18.02;;;9.73;;
72586;SDS011;60621;49.576;11.024;2022-11-14T00:07:18;18.85;;;8.70;;
72586;SDS011;60621;49.576;11.024;2022-11-14T00:08:22;16.17;;;9.05;;
72586;SDS011;60621;49.576;11.024;2022-11-14T00:09:28;15.48;;;7.45;;
72586;SDS011;60621;49.576;11.024;2022-11-14T00:10:30;16.65;;;8.43;;
72586;SDS011;60621;49.576;11.024;2022-11-14T00:11:31;17.60;;;8.85;;
72586;SDS011;60621;49.576;11.024;2022-11-14T00:12:33;16.02;;;8.52;;
72586;SDS011;60621;49.576;11.024;2022-11-14T00:13:35;17.58;;;8.95;;
72586;SDS011;60621;49.576;11.024;2022-11-14T00:14:37;18.15;;;9.35;;
72586;SDS011;60621;49.576;11.024;2022-11-14T00:15:38;18.02;;;8.88;;
72586;SDS011;60621;49.576;11.024;2022-11-14T00:16:40;18.52;;;10.23;;
72586;SDS011;60621;49.576;11.024;2022-11-14T00:17:42;17.05;;;9.48;;
72586;SDS011;60621;49.576;11.024;2022-11-14T00:18:43;17.00;;;8.75;;
72586;SDS011;60621;49.576;11.024;2022-11-14T00:19:45;17.27;;;9.20;;
72586;SDS011;60621;49.576;11.024;2022-11-14T00:20:47;15.90;;;8.38;;
72586;SDS011;60621;49.576;11.024;2022-11-14T00:21:49;17.83;;;9.68;;
72586;SDS011;60621;49.576;11.024;2022-11-14T00:22:53;17.52;;;8.40;;
72586;SDS011;60621;49.576;11.024;2022-11-14T00:23:55;18.67;;;9.77;;
72586;SDS011;60621;49.576;11.024;2022-11-14T00:24:56;16.67;;;8.93;;
72586;SDS011;60621;49.576;11.024;2022-11-14T00:25:58;15.82;;;8.50;;
72586;SDS011;60621;49.576;11.024;2022-11-14T00:26:59;17.67;;;9.07;;
72586;SDS011;60621;49.576;11.024;2022-11-14T00:28:01;18.98;;;9.40;;
72586;SDS011;60621;49.576;11.024;2022-11-14T00:29:03;17.25;;;9.18;;
72586;SDS011;60621;49.576;11.024;2022-11-14T00:30:04;18.80;;;9.45;;
72586;SDS011;60621;49.576;11.024;2022-11-14T00:31:07;17.25;;;8.70;;
72586;SDS011;60621;49.576;11.024;2022-11-14T00:32:10;15.48;;;8.30;;
72586;SDS011;60621;49.576;11.024;2022-11-14T00:33:11;16.10;;;8.75;;
72586;SDS011;60621;49.576;11.024;2022-11-14T00:34:20;17.50;;;8.70;;
72586;SDS011;60621;49.576;11.024;2022-11-14T00:35:21;17.17;;;8.13;;
72586;SDS011;60621;49.576;11.024;2022-11-14T00:36:23;18.27;;;9.15;;
72586;SDS011;60621;49.576;11.024;2022-11-14T00:37:25;17.77;;;8.65;;
72586;SDS011;60621;49.576;11.024;2022-11-14T00:38:44;17.98;;;8.65;;
72586;SDS011;60621;49.576;11.024;2022-11-14T00:39:46;15.10;;;8.05;;
72586;SDS011;60621;49.576;11.024;2022-11-14T00:40:48;15.13;;;8.38;;
72586;SDS011;60621;49.576;11.024;2022-11-14T00:41:50;15.82;;;8.40;;
72586;SDS011;60621;49.576;11.024;2022-11-14T00:42:51;18.05;;;8.75;;
72586;SDS011;60621;49.576;11.024;2022-11-14T00:43:53;18.90;;;9.80;;
72586;SDS011;60621;49.576;11.024;2022-11-14T00:44:54;17.42;;;9.10;;
72586;SDS011;60621;49.576;11.024;2022-11-14T00:45:56;16.90;;;8.80;;
72586;SDS011;60621;49.576;11.024;2022-11-14T00:46:58;16.88;;;8.82;;
72586;SDS011;60621;49.576;11.024;2022-11-14T00:48:00;18.27;;;8.70;;
72586;SDS011;60621;49.576;11.024;2022-11-14T00:49:01;18.67;;;9.73;;
72586;SDS011;60621;49.576;11.024;2022-11-14T00:50:03;17.98;;;9.23;;
72586;SDS011;60621;49.576;11.024;2022-11-14T00:51:05;17.40;;;8.75;;
72586;SDS011;60621;49.576;11.024;2022-11-14T00:52:06;17.45;;;8.70;;
72586;SDS011;60621;49.576;11.024;2022-11-14T00:53:08;18.75;;;9.43;;
72586;SDS011;60621;49.576;11.024;2022-11-14T00:54:10;17.45;;;8.68;;
72586;SDS011;60621;49.576;11.024;2022-11-14T00:55:11;16.52;;;9.05;;
72586;SDS011;60621;49.576;11.024;2022-11-14T00:56:13;17.50;;;8.88;;
72586;SDS011;60621;49.576;11.024;2022-11-14T00:57:14;16.08;;;7.90;;
72586;SDS011;60621;49.576;11.024;2022-11-14T00:58:16;19.13;;;10.15;;
72586;SDS011;60621;49.576;11.024;2022-11-14T00:59:17;19.23;;;9.73;;
72586;SDS011;60621;49.576;11.024;2022-11-14T01:00:19;25.95;;;12.50;;
72586;SDS011;60621;49.576;11.024;2022-11-14T01:01:21;26.75;;;11.55;;
72586;SDS011;60621;49.576;11.024;2022-11-14T01:02:22;28.58;;;12.95;;
72586;SDS011;60621;49.576;11.024;2022-11-14T01:03:24;27.35;;;12.07;;
72586;SDS011;60621;49.576;11.024;2022-11-14T01:04:25;25.38;;;11.65;;
72586;SDS011;60621;49.576;11.024;2022-11-14T01:05:27;24.83;;;12.43;;
72586;SDS011;60621;49.576;11.024;2022-11-14T01:06:29;22.98;;;10.35;;
72586;SDS011;60621;49.576;11.024;2022-11-14T01:07:31;23.10;;;11.52;;
72586;SDS011;60621;49.576;11.024;2022-11-14T01:08:32;23.27;;;11.20;;
72586;SDS011;60621;49.576;11.024;2022-11-14T01:09:34;18.83;;;9.10;;
72586;SDS011;60621;49.576;11.024;2022-11-14T01:10:39;18.95;;;10.15;;
72586;SDS011;60621;49.576;11.024;2022-11-14T01:11:42;19.38;;;9.88;;
72586;SDS011;60621;49.576;11.024;2022-11-14T01:12:43;19.45;;;9.52;;
72586;SDS011;60621;49.576;11.024;2022-11-14T01:13:45;21.40;;;10.45;;
72586;SDS011;60621;49.576;11.024;2022-11-14T01:14:47;20.08;;;9.13;;
72586;SDS011;60621;49.576;11.024;2022-11-14T01:15:48;17.40;;;9.05;;
72586;SDS011;60621;49.576;11.024;2022-11-14T01:16:50;18.45;;;8.80;;
72586;SDS011;60621;49.576;11.024;2022-11-14T01:17:51;21.60;;;10.70;;
72586;SDS011;60621;49.576;11.024;2022-11-14T01:18:53;19.95;;;9.55;;
72586;SDS011;60621;49.576;11.024;2022-11-14T01:19:55;17.95;;;9.38;;
72586;SDS011;60621;49.576;11.024;2022-11-14T01:20:57;19.88;;;9.90;;
72586;SDS011;60621;49.576;11.024;2022-11-14T01:21:59;19.27;;;9.77;;
72586;SDS011;60621;49.576;11.024;2022-11-14T01:23:06;18.67;;;9.55;;
72586;SDS011;60621;49.576;11.024;2022-11-14T01:25:11;21.52;;;9.82;;
72586;SDS011;60621;49.576;11.024;2022-11-14T01:26:15;20.70;;;9.93;;
72586;SDS011;60621;49.576;11.024;2022-11-14T01:27:17;18.30;;;9.82;;
72586;SDS011;60621;49.576;11.024;2022-11-14T01:28:18;20.45;;;10.35;;
72586;SDS011;60621;49.576;11.024;2022-11-14T01:29:20;22.08;;;10.02;;
72586;SDS011;60621;49.576;11.024;2022-11-14T01:30:22;20.70;;;10.43;;
72586;SDS011;60621;49.576;11.024;2022-11-14T01:31:24;20.48;;;10.25;;
72586;SDS011;60621;49.576;11.024;2022-11-14T01:32:26;19.58;;;9.43;;
72586;SDS011;60621;49.576;11.024;2022-11-14T01:33:28;19.30;;;9.55;;
72586;SDS011;60621;49.576;11.024;2022-11-14T01:34:29;20.85;;;10.25;;
72586;SDS011;60621;49.576;11.024;2022-11-14T01:35:32;19.02;;;9.85;;
72586;SDS011;60621;49.576;11.024;2022-11-14T01:36:35;20.08;;;10.35;;
72586;SDS011;60621;49.576;11.024;2022-11-14T01:37:37;17.60;;;8.85;;
72586;SDS011;60621;49.576;11.024;2022-11-14T01:38:39;20.33;;;10.05;;
72586;SDS011;60621;49.576;11.024;2022-11-14T01:39:40;20.33;;;10.43;;
72586;SDS011;60621;49.576;11.024;2022-11-14T01:40:43;17.40;;;8.63;;
72586;SDS011;60621;49.576;11.024;2022-11-14T01:44:51;19.73;;;9.45;;
72586;SDS011;60621;49.576;11.024;2022-11-14T01:47:09;18.45;;;9.35;;
72586;SDS011;60621;49.576;11.024;2022-11-14T01:48:35;18.58;;;9.45;;
72586;SDS011;60621;49.576;11.024;2022-11-14T01:50:53;19.73;;;9.25;;
72586;SDS011;60621;49.576;11.024;2022-11-14T01:52:08;19.35;;;9.00;;
72586;SDS011;60621;49.576;11.024;2022-11-14T01:53:12;21.55;;;9.43;;
72586;SDS011;60621;49.576;11.024;2022-11-14T01:54:19;20.38;;;10.00;;
72586;SDS011;60621;49.576;11.024;2022-11-14T01:55:26;19.50;;;10.02;;
72586;SDS011;60621;49.576;11.024;2022-11-14T01:56:33;19.67;;;9.55;;
72586;SDS011;60621;49.576;11.024;2022-11-14T01:57:43;20.20;;;9.48;;
72586;SDS011;60621;49.576;11.024;2022-11-14T01:58:55;18.95;;;9.73;;
72586;SDS011;60621;49.576;11.024;2022-11-14T02:00:05;19.15;;;9.48;;
72586;SDS011;60621;49.576;11.024;2022-11-14T02:01:09;20.35;;;9.20;;
72586;SDS011;60621;49.576;11.024;2022-11-14T02:02:12;19.10;;;9.70;;
72586;SDS011;60621;49.576;11.024;2022-11-14T02:03:17;20.95;;;9.80;;
72586;SDS011;60621;49.576;11.024;2022-11-14T02:04:23;20.30;;;9.73;;
72586;SDS011;60621;49.576;11.024;2022-11-14T02:05:29;19.73;;;9.23;;
72586;SDS011;60621;49.576;11.024;2022-11-14T02:06:32;19.35;;;9.65;;
72586;SDS011;60621;49.576;11.024;2022-11-14T02:07:36;18.90;;;10.23;;
72586;SDS011;60621;49.576;11.024;2022-11-14T02:08:39;19.58;;;10.07;;
72586;SDS011;60621;49.576;11.024;2022-11-14T02:09:43;20.20;;;9.82;;
72586;SDS011;60621;49.576;11.024;2022-11-14T02:10:45;20.80;;;10.15;;
72586;SDS011;60621;49.576;11.024;2022-11-14T02:11:47;23.50;;;11.60;;
72586;SDS011;60621;49.576;11.024;2022-11-14T02:12:51;21.50;;;10.77;;
72586;SDS011;60621;49.576;11.024;2022-11-14T02:13:53;21.17;;;10.75;;
72586;SDS011;60621;49.576;11.024;2022-11-14T02:14:55;20.27;;;10.57;;
72586;SDS011;60621;49.576;11.024;2022-11-14T02:15:58;20.42;;;11.18;;
72586;SDS011;60621;49.576;11.024;2022-11-14T02:16:59;19.50;;;10.40;;
72586;SDS011;60621;49.576;11.024;2022-11-14T02:18:21;19.85;;;10.25;;
72586;SDS011;60621;49.576;11.024;2022-11-14T02:19:23;20.88;;;10.20;;
72586;SDS011;60621;49.576;11.024;2022-11-14T02:20:25;20.90;;;10.45;;
72586;SDS011;60621;49.576;11.024;2022-11-14T02:21:28;19.80;;;10.20;;
72586;SDS011;60621;49.576;11.024;2022-11-14T02:22:30;21.20;;;9.90;;
72586;SDS011;60621;49.576;11.024;2022-11-14T02:23:32;20.23;;;9.60;;
72586;SDS011;60621;49.576;11.024;2022-11-14T02:24:34;20.20;;;10.02;;
72586;SDS011;60621;49.576;11.024;2022-11-14T02:25:35;18.67;;;9.13;;
72586;SDS011;60621;49.576;11.024;2022-11-14T02:26:38;20.92;;;10.20;;
72586;SDS011;60621;49.576;11.024;2022-11-14T02:27:42;17.55;;;9.10;;
72586;SDS011;60621;49.576;11.024;2022-11-14T02:28:44;17.58;;;9.32;;
72586;SDS011;60621;49.576;11.024;2022-11-14T02:29:46;18.63;;;9.57;;
72586;SDS011;60621;49.576;11.024;2022-11-14T02:30:47;17.33;;;9.27;;
72586;SDS011;60621;49.576;11.024;2022-11-14T02:31:49;16.60;;;9.15;;
72586;SDS011;60621;49.576;11.024;2022-11-14T02:32:50;18.05;;;9.23;;
72586;SDS011;60621;49.576;11.024;2022-11-14T02:34:12;19.08;;;9.32;;
72586;SDS011;60621;49.576;11.024;2022-11-14T02:35:16;19.40;;;9.68;;
72586;SDS011;60621;49.576;11.024;2022-11-14T02:36:18;19.05;;;10.02;;
72586;SDS011;60621;49.576;11.024;2022-11-14T02:37:19;20.08;;;10.00;;
72586;SDS011;60621;49.576;11.024;2022-11-14T02:38:21;17.45;;;9.20;;
72586;SDS011;60621;49.576;11.024;2022-11-14T02:39:24;18.58;;;9.95;;
72586;SDS011;60621;49.576;11.024;2022-11-14T02:40:26;19.77;;;9.40;;
72586;SDS011;60621;49.576;11.024;2022-11-14T02:41:27;19.67;;;10.20;;
72586;SDS011;60621;49.576;11.024;2022-11-14T02:42:29;16.90;;;9.18;;
72586;SDS011;60621;49.576;11.024;2022-11-14T02:43:31;18.08;;;8.98;;
72586;SDS011;60621;49.576;11.024;2022-11-14T02:44:32;18.00;;;8.68;;
72586;SDS011;60621;49.576;11.024;2022-11-14T02:45:34;16.83;;;8.13;;
72586;SDS011;60621;49.576;11.024;2022-11-14T02:46:36;17.90;;;9.40;;
72586;SDS011;60621;49.576;11.024;2022-11-14T02:47:37;16.80;;;8.50;;
72586;SDS011;60621;49.576;11.024;2022-11-14T02:48:38;18.90;;;9.38;;
72586;SDS011;60621;49.576;11.024;2022-11-14T02:49:40;17.98;;;9.32;;
72586;SDS011;60621;49.576;11.024;2022-11-14T02:50:41;18.63;;;8.18;;
72586;SDS011;60621;49.576;11.024;2022-11-14T02:51:43;18.45;;;8.88;;
72586;SDS011;60621;49.576;11.024;2022-11-14T02:52:45;16.95;;;7.97;;
72586;SDS011;60621;49.576;11.024;2022-11-14T02:53:46;16.63;;;8.68;;
72586;SDS011;60621;49.576;11.024;2022-11-14T02:54:48;18.33;;;9.35;;
72586;SDS011;60621;49.576;11.024;2022-11-14T02:55:54;19.52;;;9.52;;
72586;SDS011;60621;49.576;11.024;2022-11-14T02:56:56;17.67;;;9.32;;
72586;SDS011;60621;49.576;11.024;2022-11-14T02:57:58;17.83;;;9.77;;
72586;SDS011;60621;49.576;11.024;2022-11-14T02:58:59;18.35;;;9.43;;
72586;SDS011;60621;49.576;11.024;2022-11-14T03:00:01;18.63;;;9.95;;
72586;SDS011;60621;49.576;11.024;2022-11-14T03:01:02;19.80;;;9.65;;
72586;SDS011;60621;49.576;11.024;2022-11-14T03:02:21;18.80;;;9.40;;
72586;SDS011;60621;49.576;11.024;2022-11-14T03:03:23;19.05;;;9.90;;
72586;SDS011;60621;49.576;11.024;2022-11-14T03:04:24;19.50;;;10.35;;
72586;SDS011;60621;49.576;11.024;2022-11-14T03:05:26;21.10;;;10.05;;
72586;SDS011;60621;49.576;11.024;2022-11-14T03:06:27;19.75;;;10.10;;
72586;SDS011;60621;49.576;11.024;2022-11-14T03:07:29;21.38;;;11.07;;
72586;SDS011;60621;49.576;11.024;2022-11-14T03:08:30;21.98;;;11.20;;
72586;SDS011;60621;49.576;11.024;2022-11-14T03:09:32;23.27;;;11.38;;
72586;SDS011;60621;49.576;11.024;2022-11-14T03:10:34;23.63;;;11.60;;
72586;SDS011;60621;49.576;11.024;2022-11-14T03:11:35;19.95;;;10.45;;
72586;SDS011;60621;49.576;11.024;2022-11-14T03:12:38;20.13;;;9.52;;
72586;SDS011;60621;49.576;11.024;2022-11-14T03:13:40;18.20;;;9.82;;
72586;SDS011;60621;49.576;11.024;2022-11-14T03:14:42;18.55;;;9.35;;
72586;SDS011;60621;49.576;11.024;2022-11-14T03:15:44;19.27;;;8.80;;
72586;SDS011;60621;49.576;11.024;2022-11-14T03:16:46;17.27;;;9.32;;
72586;SDS011;60621;49.576;11.024;2022-11-14T03:17:47;19.98;;;9.73;;
72586;SDS011;60621;49.576;11.024;2022-11-14T03:18:48;18.08;;;9.68;;
72586;SDS011;60621;49.576;11.024;2022-11-14T03:19:50;18.48;;;9.60;;
72586;SDS011;60621;49.576;11.024;2022-11-14T03:20:52;18.63;;;9.82;;
72586;SDS011;60621;49.576;11.024;2022-11-14T03:21:53;18.77;;;9.05;;
72586;SDS011;60621;49.576;11.024;2022-11-14T03:22:55;21.13;;;10.45;;
72586;SDS011;60621;49.576;11.024;2022-11-14T03:23:56;17.45;;;9.57;;
72586;SDS011;60621;49.576;11.024;2022-11-14T03:24:58;17.95;;;9.18;;
72586;SDS011;60621;49.576;11.024;2022-11-14T03:26:00;17.05;;;8.82;;
72586;SDS011;60621;49.576;11.024;2022-11-14T03:27:02;18.00;;;9.55;;
72586;SDS011;60621;49.576;11.024;2022-11-14T03:28:04;19.45;;;9.32;;
72586;SDS011;60621;49.576;11.024;2022-11-14T03:29:05;17.23;;;8.52;;
72586;SDS011;60621;49.576;11.024;2022-11-14T03:30:09;17.45;;;9.48;;
72586;SDS011;60621;49.576;11.024;2022-11-14T03:31:12;17.65;;;8.95;;
72586;SDS011;60621;49.576;11.024;2022-11-14T03:32:14;16.83;;;9.00;;
72586;SDS011;60621;49.576;11.024;2022-11-14T03:33:16;17.50;;;8.88;;
72586;SDS011;60621;49.576;11.024;2022-11-14T03:34:17;17.13;;;9.23;;
72586;SDS011;60621;49.576;11.024;2022-11-14T03:35:19;17.08;;;9.10;;
72586;SDS011;60621;49.576;11.024;2022-11-14T03:36:20;19.02;;;9.52;;
72586;SDS011;60621;49.576;11.024;2022-11-14T03:37:22;18.27;;;9.57;;
72586;SDS011;60621;49.576;11.024;2022-11-14T03:38:24;17.08;;;8.77;;
72586;SDS011;60621;49.576;11.024;2022-11-14T03:39:26;16.33;;;9.10;;
72586;SDS011;60621;49.576;11.024;2022-11-14T03:40:27;19.35;;;9.40;;
72586;SDS011;60621;49.576;11.024;2022-11-14T03:41:29;16.52;;;8.45;;
72586;SDS011;60621;49.576;11.024;2022-11-14T03:42:34;18.27;;;9.50;;
72586;SDS011;60621;49.576;11.024;2022-11-14T03:43:36;17.35;;;9.15;;
72586;SDS011;60621;49.576;11.024;2022-11-14T03:44:38;17.10;;;9.48;;
72586;SDS011;60621;49.576;11.024;2022-11-14T03:45:39;20.08;;;9.63;;
72586;SDS011;60621;49.576;11.024;2022-11-14T03:46:41;18.00;;;9.38;;
72586;SDS011;60621;49.576;11.024;2022-11-14T03:47:42;19.48;;;9.82;;
72586;SDS011;60621;49.576;11.024;2022-11-14T03:48:44;18.95;;;9.55;;
72586;SDS011;60621;49.576;11.024;2022-11-14T03:49:45;19.70;;;9.57;;
72586;SDS011;60621;49.576;11.024;2022-11-14T03:50:48;18.92;;;9.45;;
72586;SDS011;60621;49.576;11.024;2022-11-14T03:51:50;17.70;;;9.57;;
72586;SDS011;60621;49.576;11.024;2022-11-14T03:52:51;19.50;;;10.32;;
72586;SDS011;60621;49.576;11.024;2022-11-14T03:53:53;20.00;;;9.30;;
72586;SDS011;60621;49.576;11.024;2022-11-14T03:54:54;19.27;;;10.02;;
72586;SDS011;60621;49.576;11.024;2022-11-14T03:55:56;18.17;;;9.15;;
72586;SDS011;60621;49.576;11.024;2022-11-14T03:56:57;18.48;;;8.98;;
72586;SDS011;60621;49.576;11.024;2022-11-14T03:57:59;17.83;;;9.55;;
72586;SDS011;60621;49.576;11.024;2022-11-14T03:59:01;18.23;;;9.48;;
72586;SDS011;60621;49.576;11.024;2022-11-14T04:00:03;18.70;;;9.65;;
72586;SDS011;60621;49.576;11.024;2022-11-14T04:01:05;18.77;;;9.20;;
72586;SDS011;60621;49.576;11.024;2022-11-14T04:02:07;17.17;;;9.52;;
72586;SDS011;60621;49.576;11.024;2022-11-14T04:03:09;18.73;;;9.70;;
72586;SDS011;60621;49.576;11.024;2022-11-14T04:04:11;17.33;;;9.05;;
72586;SDS011;60621;49.576;11.024;2022-11-14T04:05:13;21.20;;;10.02;;
72586;SDS011;60621;49.576;11.024;2022-11-14T04:06:14;16.95;;;8.65;;
72586;SDS011;60621;49.576;11.024;2022-11-14T04:07:16;16.63;;;8.45;;
72586;SDS011;60621;49.576;11.024;2022-11-14T04:08:17;17.42;;;9.23;;
72586;SDS011;60621;49.576;11.024;2022-11-14T04:09:19;15.73;;;8.75;;
72586;SDS011;60621;49.576;11.024;2022-11-14T04:10:21;18.40;;;9.60;;
72586;SDS011;60621;49.576;11.024;2022-11-14T04:11:23;17.35;;;8.68;;
72586;SDS011;60621;49.576;11.024;2022-11-14T04:12:24;19.35;;;9.52;;
72586;SDS011;60621;49.576;11.024;2022-11-14T04:13:26;18.20;;;9.40;;
72586;SDS011;60621;49.576;11.024;2022-11-14T04:14:28;20.70;;;9.57;;
72586;SDS011;60621;49.576;11.024;2022-11-14T04:15:29;19.85;;;9.70;;
72586;SDS011;60621;49.576;11.024;2022-11-14T04:16:31;18.98;;;9.63;;
72586;SDS011;60621;49.576;11.024;2022-11-14T04:17:32;20.60;;;9.57;;
72586;SDS011;60621;49.576;11.024;2022-11-14T04:18:39;20.52;;;10.38;;
72586;SDS011;60621;49.576;11.024;2022-11-14T04:19:41;19.98;;;10.18;;
72586;SDS011;60621;49.576;11.024;2022-11-14T04:20:43;18.42;;;9.68;;
72586;SDS011;60621;49.576;11.024;2022-11-14T04:21:44;20.20;;;10.57;;
72586;SDS011;60621;49.576;11.024;2022-11-14T04:22:46;21.33;;;11.38;;
72586;SDS011;60621;49.576;11.024;2022-11-14T04:23:48;19.63;;;10.18;;
72586;SDS011;60621;49.576;11.024;2022-11-14T04:24:50;22.27;;;10.60;;
72586;SDS011;60621;49.576;11.024;2022-11-14T04:25:51;21.40;;;10.35;;
72586;SDS011;60621;49.576;11.024;2022-11-14T04:26:53;19.27;;;10.13;;
72586;SDS011;60621;49.576;11.024;2022-11-14T04:27:55;19.25;;;10.27;;
72586;SDS011;60621;49.576;11.024;2022-11-14T04:28:56;17.65;;;9.68;;
72586;SDS011;60621;49.576;11.024;2022-11-14T04:29:58;19.08;;;10.43;;
72586;SDS011;60621;49.576;11.024;2022-11-14T04:30:59;17.73;;;9.40;;
72586;SDS011;60621;49.576;11.024;2022-11-14T04:32:01;16.70;;;9.07;;
72586;SDS011;60621;49.576;11.024;2022-11-14T04:33:03;17.73;;;8.70;;
72586;SDS011;60621;49.576;11.024;2022-11-14T04:34:04;15.73;;;8.52;;
72586;SDS011;60621;49.576;11.024;2022-11-14T04:35:06;17.13;;;8.18;;
72586;SDS011;60621;49.576;11.024;2022-11-14T04:36:07;17.92;;;9.35;;
72586;SDS011;60621;49.576;11.024;2022-11-14T04:37:09;17.40;;;9.15;;
72586;SDS011;60621;49.576;11.024;2022-11-14T04:38:11;19.25;;;9.32;;
72586;SDS011;60621;49.576;11.024;2022-11-14T04:39:12;18.38;;;9.80;;
72586;SDS011;60621;49.576;11.024;2022-11-14T04:40:14;17.63;;;9.25;;
72586;SDS011;60621;49.576;11.024;2022-11-14T04:41:15;19.80;;;10.10;;
72586;SDS011;60621;49.576;11.024;2022-11-14T04:42:17;20.70;;;10.35;;
72586;SDS011;60621;49.576;11.024;2022-11-14T04:43:19;22.20;;;10.20;;
72586;SDS011;60621;49.576;11.024;2022-11-14T04:44:20;22.15;;;11.48;;
72586;SDS011;60621;49.576;11.024;2022-11-14T04:45:22;20.63;;;10.05;;
72586;SDS011;60621;49.576;11.024;2022-11-14T04:46:24;19.58;;;10.75;;
72586;SDS011;60621;49.576;11.024;2022-11-14T04:47:26;20.83;;;10.63;;
72586;SDS011;60621;49.576;11.024;2022-11-14T04:48:27;21.75;;;10.07;;
72586;SDS011;60621;49.576;11.024;2022-11-14T04:49:29;20.67;;;10.80;;
72586;SDS011;60621;49.576;11.024;2022-11-14T04:50:31;20.10;;;10.70;;
72586;SDS011;60621;49.576;11.024;2022-11-14T04:51:33;20.17;;;10.32;;
72586;SDS011;60621;49.576;11.024;2022-11-14T04:52:34;21.20;;;10.38;;
72586;SDS011;60621;49.576;11.024;2022-11-14T04:53:36;19.77;;;10.20;;
72586;SDS011;60621;49.576;11.024;2022-11-14T04:54:38;20.77;;;10.18;;
72586;SDS011;60621;49.576;11.024;2022-11-14T04:55:40;17.90;;;8.70;;
72586;SDS011;60621;49.576;11.024;2022-11-14T04:56:41;20.85;;;10.40;;
72586;SDS011;60621;49.576;11.024;2022-11-14T04:57:43;18.73;;;9.65;;
72586;SDS011;60621;49.576;11.024;2022-11-14T04:58:44;21.13;;;10.60;;
72586;SDS011;60621;49.576;11.024;2022-11-14T04:59:46;19.05;;;9.93;;
72586;SDS011;60621;49.576;11.024;2022-11-14T05:00:47;19.77;;;9.90;;
72586;SDS011;60621;49.576;11.024;2022-11-14T05:01:49;20.92;;;10.60;;
72586;SDS011;60621;49.576;11.024;2022-11-14T05:02:50;19.73;;;9.75;;
72586;SDS011;60621;49.576;11.024;2022-11-14T05:03:52;21.45;;;10.32;;
72586;SDS011;60621;49.576;11.024;2022-11-14T05:04:54;20.10;;;10.40;;
72586;SDS011;60621;49.576;11.024;2022-11-14T05:05:58;20.35;;;10.07;;
72586;SDS011;60621;49.576;11.024;2022-11-14T05:07:01;19.40;;;10.15;;
72586;SDS011;60621;49.576;11.024;2022-11-14T05:08:02;19.90;;;9.75;;
72586;SDS011;60621;49.576;11.024;2022-11-14T05:09:04;17.75;;;9.20;;
72586;SDS011;60621;49.576;11.024;2022-11-14T05:10:06;19.88;;;9.15;;
72586;SDS011;60621;49.576;11.024;2022-11-14T05:11:14;19.90;;;10.05;;
72586;SDS011;60621;49.576;11.024;2022-11-14T05:12:17;18.85;;;9.15;;
72586;SDS011;60621;49.576;11.024;2022-11-14T05:13:18;18.95;;;9.82;;
72586;SDS011;60621;49.576;11.024;2022-11-14T05:14:20;19.15;;;9.52;;
72586;SDS011;60621;49.576;11.024;2022-11-14T05:15:22;17.05;;;8.70;;
72586;SDS011;60621;49.576;11.024;2022-11-14T05:16:23;17.25;;;8.77;;
72586;SDS011;60621;49.576;11.024;2022-11-14T05:17:25;16.80;;;9.20;;
72586;SDS011;60621;49.576;11.024;2022-11-14T05:18:28;18.30;;;9.23;;
72586;SDS011;60621;49.576;11.024;2022-11-14T05:19:29;19.05;;;8.82;;
72586;SDS011;60621;49.576;11.024;2022-11-14T05:20:31;18.05;;;8.85;;
72586;SDS011;60621;49.576;11.024;2022-11-14T05:21:33;19.08;;;10.07;;
72586;SDS011;60621;49.576;11.024;2022-11-14T05:22:34;19.30;;;9.65;;
72586;SDS011;60621;49.576;11.024;2022-11-14T05:23:36;22.42;;;10.80;;
72586;SDS011;60621;49.576;11.024;2022-11-14T05:24:38;18.45;;;9.75;;
72586;SDS011;60621;49.576;11.024;2022-11-14T05:25:39;20.75;;;10.30;;
72586;SDS011;60621;49.576;11.024;2022-11-14T05:26:41;19.10;;;9.93;;
72586;SDS011;60621;49.576;11.024;2022-11-14T05:27:42;20.23;;;9.80;;
72586;SDS011;60621;49.576;11.024;2022-11-14T05:28:44;21.13;;;10.70;;
72586;SDS011;60621;49.576;11.024;2022-11-14T05:29:46;18.13;;;9.65;;
72586;SDS011;60621;49.576;11.024;2022-11-14T05:30:47;18.60;;;9.60;;
72586;SDS011;60621;49.576;11.024;2022-11-14T05:31:48;18.33;;;9.60;;
72586;SDS011;60621;49.576;11.024;2022-11-14T05:32:50;20.98;;;10.52;;
72586;SDS011;60621;49.576;11.024;2022-11-14T05:33:52;18.60;;;9.95;;
72586;SDS011;60621;49.576;11.024;2022-11-14T05:34:54;17.30;;;9.07;;
72586;SDS011;60621;49.576;11.024;2022-11-14T05:36:00;17.80;;;9.50;;
72586;SDS011;60621;49.576;11.024;2022-11-14T05:37:06;20.38;;;10.48;;
72586;SDS011;60621;49.576;11.024;2022-11-14T05:38:08;19.08;;;9.93;;
72586;SDS011;60621;49.576;11.024;2022-11-14T05:39:10;19.20;;;9.43;;
72586;SDS011;60621;49.576;11.024;2022-11-14T05:40:11;18.65;;;8.90;;
72586;SDS011;60621;49.576;11.024;2022-11-14T05:41:14;18.83;;;9.55;;
72586;SDS011;60621;49.576;11.024;2022-11-14T05:42:17;16.48;;;9.20;;
72586;SDS011;60621;49.576;11.024;2022-11-14T05:43:19;17.27;;;9.45;;
72586;SDS011;60621;49.576;11.024;2022-11-14T05:44:20;17.90;;;9.27;;
72586;SDS011;60621;49.576;11.024;2022-11-14T05:45:22;18.08;;;8.57;;
72586;SDS011;60621;49.576;11.024;2022-11-14T05:46:23;17.08;;;8.95;;
72586;SDS011;60621;49.576;11.024;2022-11-14T05:47:25;17.95;;;9.13;;
72586;SDS011;60621;49.576;11.024;2022-11-14T05:48:27;19.45;;;9.55;;
72586;SDS011;60621;49.576;11.024;2022-11-14T05:49:30;17.00;;;8.60;;
72586;SDS011;60621;49.576;11.024;2022-11-14T05:50:31;17.17;;;8.60;;
72586;SDS011;60621;49.576;11.024;2022-11-14T05:51:33;16.27;;;9.32;;
72586;SDS011;60621;49.576;11.024;2022-11-14T05:52:34;20.58;;;9.40;;
72586;SDS011;60621;49.576;11.024;2022-11-14T05:53:36;16.48;;;8.90;;
72586;SDS011;60621;49.576;11.024;2022-11-14T05:54:38;17.38;;;9.52;;
72586;SDS011;60621;49.576;11.024;2022-11-14T05:55:39;18.05;;;9.38;;
72586;SDS011;60621;49.576;11.024;2022-11-14T05:56:40;16.88;;;9.50;;
72586;SDS011;60621;49.576;11.024;2022-11-14T05:57:42;16.08;;;8.43;;
72586;SDS011;60621;49.576;11.024;2022-11-14T05:58:43;17.75;;;9.02;;
72586;SDS011;60621;49.576;11.024;2022-11-14T05:59:45;18.23;;;9.77;;
72586;SDS011;60621;49.576;11.024;2022-11-14T06:00:46;16.98;;;8.80;;
72586;SDS011;60621;49.576;11.024;2022-11-14T06:01:54;16.75;;;8.50;;
72586;SDS011;60621;49.576;11.024;2022-11-14T06:02:56;15.60;;;8.20;;
72586;SDS011;60621;49.576;11.024;2022-11-14T06:03:58;17.42;;;8.95;;
72586;SDS011;60621;49.576;11.024;2022-11-14T06:05:00;17.42;;;9.35;;
72586;SDS011;60621;49.576;11.024;2022-11-14T06:06:03;15.85;;;8.63;;
72586;SDS011;60621;49.576;11.024;2022-11-14T06:07:05;15.98;;;9.15;;
72586;SDS011;60621;49.576;11.024;2022-11-14T06:08:07;18.45;;;9.40;;
72586;SDS011;60621;49.576;11.024;2022-11-14T06:09:09;16.35;;;7.97;;
72586;SDS011;60621;49.576;11.024;2022-11-14T06:10:11;18.88;;;8.77;;
72586;SDS011;60621;49.576;11.024;2022-11-14T06:11:14;20.70;;;9.57;;